createdAt,value
2024-03-21T00:00:17.361Z,33.24
2024-03-21T00:01:17.353Z,32.98
2024-03-21T00:02:17.374Z,33.33
2024-03-21T00:03:17.463Z,33.30
2024-03-21T00:04:17.435Z,33.38
2024-03-21T00:05:17.490Z,33.12
2024-03-21T00:06:17.529Z,33.26
2024-03-21T00:07:17.587Z,34.06
2024-03-21T00:08:19.583Z,33.78
2024-03-21T00:09:17.603Z,33.68
2024-03-21T00:10:17.615Z,33.78
2024-03-21T00:11:17.622Z,33.68
2024-03-21T00:12:17.573Z,34.23
2024-03-21T00:13:17.622Z,33.74
2024-03-21T00:14:17.645Z,33.33
2024-03-21T00:15:17.583Z,33.34
2024-03-21T00:16:17.582Z,33.28
2024-03-21T00:17:17.679Z,33.16
2024-03-21T00:18:17.574Z,33.22
2024-03-21T00:19:17.616Z,32.84
2024-03-21T00:20:17.627Z,33.15
2024-03-21T00:21:17.594Z,33.32
2024-03-21T00:22:17.607Z,33.24
2024-03-21T00:23:17.631Z,32.56
2024-03-21T00:24:17.613Z,32.58
2024-03-21T00:25:17.619Z,32.70
2024-03-21T00:26:17.623Z,32.67
2024-03-21T00:27:17.596Z,32.52
2024-03-21T00:28:17.588Z,32.63
2024-03-21T00:29:17.644Z,33.11
2024-03-21T00:30:17.594Z,32.80
2024-03-21T00:31:17.615Z,32.89
2024-03-21T00:32:17.615Z,33.04
2024-03-21T00:33:17.599Z,33.21
2024-03-21T00:34:17.597Z,33.29
2024-03-21T00:35:17.625Z,33.09
2024-03-21T00:36:17.630Z,32.98
2024-03-21T00:37:17.635Z,32.93
2024-03-21T00:38:17.727Z,32.92
2024-03-21T00:39:17.626Z,32.77
2024-03-21T00:40:17.627Z,32.66
2024-03-21T00:41:17.630Z,33.06
2024-03-21T00:42:17.625Z,33.31
2024-03-21T00:43:17.585Z,33.05
2024-03-21T00:44:17.631Z,32.76
2024-03-21T00:45:17.584Z,32.60
2024-03-21T00:46:17.590Z,32.67
2024-03-21T00:47:17.665Z,32.65
2024-03-21T00:48:17.680Z,33.39
2024-03-21T00:49:17.783Z,33.01
2024-03-21T00:50:17.940Z,32.62
2024-03-21T00:51:17.835Z,33.17
2024-03-21T00:52:17.895Z,33.01
2024-03-21T00:53:17.944Z,32.76
2024-03-21T00:54:18.016Z,32.81
2024-03-21T00:55:18.001Z,32.72
2024-03-21T00:56:18.076Z,32.78
2024-03-21T00:57:18.125Z,32.66
2024-03-21T00:58:18.158Z,32.51
2024-03-21T00:59:18.238Z,32.60
2024-03-21T01:00:18.269Z,32.40
2024-03-21T01:01:18.300Z,32.45
2024-03-21T01:02:18.309Z,32.42
2024-03-21T01:03:18.354Z,32.46
2024-03-21T01:04:18.416Z,32.81
2024-03-21T01:05:18.447Z,32.43
2024-03-21T01:06:18.496Z,33.12
2024-03-21T01:07:18.535Z,33.22
2024-03-21T01:08:18.557Z,32.87
2024-03-21T01:09:18.615Z,32.76
2024-03-21T01:10:18.656Z,32.60
2024-03-21T01:11:18.770Z,32.65
2024-03-21T01:12:18.740Z,32.51
2024-03-21T01:13:18.810Z,32.43
2024-03-21T01:14:18.858Z,32.60
2024-03-21T01:15:18.865Z,32.91
2024-03-21T01:16:18.901Z,33.53
2024-03-21T01:17:18.950Z,33.17
2024-03-21T01:18:19.002Z,32.93
2024-03-21T01:19:19.090Z,32.97
2024-03-21T01:20:19.123Z,32.97
2024-03-21T01:21:19.212Z,32.75
2024-03-21T01:22:19.213Z,32.98
2024-03-21T01:23:19.268Z,33.13
2024-03-21T01:24:19.330Z,32.87
2024-03-21T01:25:19.398Z,33.08
2024-03-21T01:26:19.428Z,32.94
2024-03-21T01:27:21.668Z,32.80
2024-03-21T01:28:19.477Z,32.63
2024-03-21T01:29:19.467Z,32.49
2024-03-21T01:30:19.479Z,32.56
2024-03-21T01:31:19.477Z,32.73
2024-03-21T01:32:19.434Z,32.54
2024-03-21T01:33:19.447Z,32.44
2024-03-21T01:34:19.502Z,32.71
2024-03-21T01:35:19.466Z,32.67
2024-03-21T01:36:19.475Z,32.60
2024-03-21T01:37:19.456Z,32.56
2024-03-21T01:38:19.570Z,32.55
2024-03-21T01:39:19.457Z,32.68
2024-03-21T01:40:19.487Z,32.70
2024-03-21T01:41:19.483Z,32.73
2024-03-21T01:42:19.493Z,33.05
2024-03-21T01:43:19.463Z,32.80
2024-03-21T01:44:19.504Z,32.77
2024-03-21T01:45:19.479Z,32.72
2024-03-21T01:46:20.292Z,32.89
2024-03-21T01:47:19.473Z,32.80
2024-03-21T01:48:19.498Z,32.47
2024-03-21T01:49:19.495Z,32.62
2024-03-21T01:50:19.494Z,32.84
2024-03-21T01:51:19.511Z,32.60
2024-03-21T01:52:19.522Z,32.54
2024-03-21T01:53:19.497Z,32.85
2024-03-21T01:54:19.470Z,32.56
2024-03-21T01:55:19.513Z,32.60
2024-03-21T01:56:19.493Z,32.64
2024-03-21T01:57:19.495Z,32.41
2024-03-21T01:58:19.479Z,32.37
2024-03-21T01:59:19.501Z,32.55
2024-03-21T02:00:19.507Z,32.41
2024-03-21T02:01:19.485Z,32.28
2024-03-21T02:02:19.493Z,32.26
2024-03-21T02:03:19.534Z,32.25
2024-03-21T02:04:19.525Z,32.31
2024-03-21T02:05:19.534Z,32.21
2024-03-21T02:06:19.476Z,32.23
2024-03-21T02:07:19.517Z,32.34
2024-03-21T02:08:19.537Z,32.44
2024-03-21T02:09:20.296Z,32.53
2024-03-21T02:10:19.511Z,32.56
2024-03-21T02:11:19.556Z,32.35
2024-03-21T02:12:19.590Z,32.34
2024-03-21T02:13:19.684Z,32.45
2024-03-21T02:14:19.718Z,32.65
2024-03-21T02:15:19.778Z,32.53
2024-03-21T02:16:19.815Z,32.46
2024-03-21T02:17:19.889Z,32.42
2024-03-21T02:18:19.930Z,32.43
2024-03-21T02:19:20.010Z,32.28
2024-03-21T02:20:20.038Z,32.32
2024-03-21T02:21:20.145Z,32.44
2024-03-21T02:22:20.171Z,32.33
2024-03-21T02:23:20.243Z,32.25
2024-03-21T02:24:20.282Z,32.22
2024-03-21T02:25:20.366Z,32.11
2024-03-21T02:26:20.392Z,32.09
2024-03-21T02:27:20.513Z,32.17
2024-03-21T02:28:20.509Z,32.70
2024-03-21T02:29:20.585Z,32.71
2024-03-21T02:30:20.598Z,32.30
2024-03-21T02:31:20.659Z,32.42
2024-03-21T02:32:20.701Z,32.30
2024-03-21T02:33:20.753Z,32.31
2024-03-21T02:34:20.811Z,32.26
2024-03-21T02:35:20.869Z,32.27
2024-03-21T02:36:20.948Z,32.33
2024-03-21T02:37:21.000Z,32.27
2024-03-21T02:38:21.051Z,32.27
2024-03-21T02:39:21.094Z,32.29
2024-03-21T02:40:21.141Z,32.31
2024-03-21T02:41:21.174Z,32.38
2024-03-21T02:42:21.221Z,32.18
2024-03-21T02:43:21.236Z,32.30
2024-03-21T02:44:21.316Z,32.49
2024-03-21T02:45:21.337Z,32.50
2024-03-21T02:46:23.509Z,32.22
2024-03-21T02:47:21.431Z,32.14
2024-03-21T02:48:21.400Z,32.06
2024-03-21T02:49:21.858Z,32.14
2024-03-21T02:50:21.389Z,32.19
2024-03-21T02:51:21.384Z,32.18
2024-03-21T02:52:21.391Z,32.18
2024-03-21T02:53:21.398Z,32.38
2024-03-21T02:54:21.402Z,32.14
2024-03-21T02:55:21.411Z,32.05
2024-03-21T02:56:21.431Z,32.10
2024-03-21T02:57:21.456Z,32.42
2024-03-21T02:58:21.401Z,32.33
2024-03-21T02:59:21.471Z,32.28
2024-03-21T03:00:21.395Z,32.27
2024-03-21T03:01:21.401Z,32.30
2024-03-21T03:02:21.413Z,32.30
2024-03-21T03:03:21.419Z,32.28
2024-03-21T03:04:21.436Z,32.33
2024-03-21T03:05:21.439Z,32.24
2024-03-21T03:06:21.437Z,32.87
2024-03-21T03:07:21.503Z,32.82
2024-03-21T03:08:21.453Z,32.78
2024-03-21T03:09:21.458Z,32.64
2024-03-21T03:10:21.432Z,32.60
2024-03-21T03:11:21.418Z,32.63
2024-03-21T03:12:21.422Z,32.41
2024-03-21T03:13:21.434Z,32.65
2024-03-21T03:14:21.435Z,32.58
2024-03-21T03:15:21.450Z,32.49
2024-03-21T03:16:21.427Z,32.34
2024-03-21T03:17:21.490Z,32.59
2024-03-21T03:18:21.435Z,32.51
2024-03-21T03:19:21.480Z,32.41
2024-03-21T03:20:21.427Z,32.29
2024-03-21T03:21:21.448Z,32.33
2024-03-21T03:22:21.464Z,32.28
2024-03-21T03:23:21.483Z,32.19
2024-03-21T03:24:21.473Z,32.52
2024-03-21T03:25:21.498Z,32.46
2024-03-21T03:26:21.520Z,32.40
2024-03-21T03:27:21.632Z,32.39
2024-03-21T03:28:21.637Z,32.49
2024-03-21T03:29:21.693Z,32.49
2024-03-21T03:30:21.756Z,32.45
2024-03-21T03:31:21.809Z,32.33
2024-03-21T03:32:21.850Z,32.72
2024-03-21T03:33:21.887Z,32.34
2024-03-21T03:34:21.953Z,32.32
2024-03-21T03:35:21.994Z,32.17
2024-03-21T03:36:22.117Z,32.25
2024-03-21T03:37:22.160Z,32.29
2024-03-21T03:38:22.225Z,32.16
2024-03-21T03:39:22.250Z,32.15
2024-03-21T03:40:22.392Z,32.32
2024-03-21T03:41:22.359Z,32.18
2024-03-21T03:42:22.459Z,32.33
2024-03-21T03:43:22.460Z,32.32
2024-03-21T03:44:22.569Z,32.30
2024-03-21T03:45:22.591Z,32.26
2024-03-21T03:46:22.641Z,32.14
2024-03-21T03:47:22.697Z,32.40
2024-03-21T03:48:22.760Z,32.35
2024-03-21T03:49:22.812Z,32.45
2024-03-21T03:50:22.838Z,32.24
2024-03-21T03:51:22.925Z,32.52
2024-03-21T03:52:22.949Z,32.40
2024-03-21T03:53:23.042Z,32.81
2024-03-21T03:54:23.113Z,32.57
2024-03-21T03:55:23.164Z,32.74
2024-03-21T03:56:23.216Z,32.49
2024-03-21T03:57:23.276Z,32.45
2024-03-21T03:58:23.337Z,32.58
2024-03-21T03:59:23.389Z,32.47
2024-03-21T04:00:23.412Z,32.56
2024-03-21T04:01:23.502Z,32.75
2024-03-21T04:02:23.564Z,32.72
2024-03-21T04:03:23.617Z,32.74
2024-03-21T04:04:23.692Z,33.07
2024-03-21T04:05:23.709Z,32.93
2024-03-21T04:06:23.826Z,32.84
2024-03-21T04:07:23.864Z,32.69
2024-03-21T04:08:23.917Z,32.60
2024-03-21T04:09:23.969Z,32.78
2024-03-21T04:10:24.029Z,32.55
2024-03-21T04:11:24.080Z,32.58
2024-03-21T04:12:24.154Z,32.56
2024-03-21T04:13:24.200Z,32.56
2024-03-21T04:14:24.266Z,32.57
2024-03-21T04:15:24.313Z,32.66
2024-03-21T04:16:24.371Z,32.61
2024-03-21T04:17:24.433Z,32.47
2024-03-21T04:18:24.491Z,32.58
2024-03-21T04:19:24.533Z,32.78
2024-03-21T04:20:24.568Z,32.83
2024-03-21T04:21:24.632Z,32.66
2024-03-21T04:22:24.677Z,32.63
2024-03-21T04:23:24.756Z,32.52
2024-03-21T04:24:24.841Z,32.49
2024-03-21T04:25:24.903Z,32.38
2024-03-21T04:26:24.969Z,32.53
2024-03-21T04:27:25.009Z,32.72
2024-03-21T04:28:25.068Z,32.56
2024-03-21T04:29:25.130Z,32.58
2024-03-21T04:30:25.178Z,32.76
2024-03-21T04:31:25.852Z,32.52
2024-03-21T04:32:25.306Z,32.48
2024-03-21T04:33:25.358Z,32.50
2024-03-21T04:34:32.661Z,32.66
2024-03-21T04:35:32.618Z,32.61
2024-03-21T04:36:32.626Z,32.51
2024-03-21T04:37:32.611Z,32.49
2024-03-21T04:38:45.403Z,32.28
2024-03-21T04:39:33.631Z,32.23
2024-03-21T04:40:32.627Z,32.21
2024-03-21T04:41:32.647Z,32.41
2024-03-21T04:42:32.637Z,32.51
2024-03-21T04:43:32.613Z,32.30
2024-03-21T04:44:32.647Z,32.36
2024-03-21T04:45:32.641Z,32.42
2024-03-21T04:46:32.640Z,32.38
2024-03-21T04:47:32.632Z,32.55
2024-03-21T04:48:32.627Z,32.45
2024-03-21T04:49:32.665Z,32.52
2024-03-21T04:50:32.704Z,32.56
2024-03-21T04:51:32.762Z,32.68
2024-03-21T04:52:32.816Z,32.48
2024-03-21T04:53:32.892Z,32.30
2024-03-21T04:54:32.930Z,32.37
2024-03-21T04:55:33.027Z,32.49
2024-03-21T04:56:33.048Z,32.39
2024-03-21T04:57:33.159Z,32.57
2024-03-21T04:58:33.158Z,32.84
2024-03-21T04:59:33.232Z,32.64
2024-03-21T05:00:33.288Z,32.47
2024-03-21T05:01:33.355Z,32.47
2024-03-21T05:02:33.451Z,32.57
2024-03-21T05:03:33.473Z,32.55
2024-03-21T05:04:33.532Z,32.67
2024-03-21T05:05:33.583Z,32.59
2024-03-21T05:06:33.667Z,32.36
2024-03-21T05:07:33.738Z,32.71
2024-03-21T05:08:33.762Z,32.97
2024-03-21T05:09:33.849Z,32.75
2024-03-21T05:10:33.911Z,32.81
2024-03-21T05:11:34.023Z,32.65
2024-03-21T05:12:34.084Z,32.87
2024-03-21T05:13:34.135Z,32.80
2024-03-21T05:14:34.200Z,32.66
2024-03-21T05:15:34.256Z,32.51
2024-03-21T05:16:34.359Z,32.53
2024-03-21T05:17:34.445Z,32.80
2024-03-21T05:18:34.475Z,32.73
2024-03-21T05:19:34.562Z,32.66
2024-03-21T05:20:34.599Z,32.63
2024-03-21T05:21:34.701Z,32.62
2024-03-21T05:22:34.737Z,32.54
2024-03-21T05:23:34.794Z,32.53
2024-03-21T05:24:34.857Z,32.59
2024-03-21T05:25:34.901Z,32.73
2024-03-21T05:26:35.000Z,32.75
2024-03-21T05:27:35.022Z,32.63
2024-03-21T05:28:35.113Z,32.85
2024-03-21T05:29:35.178Z,32.55
2024-03-21T05:30:35.218Z,32.58
2024-03-21T05:31:35.311Z,32.44
2024-03-21T05:32:35.340Z,32.81
2024-03-21T05:33:35.440Z,32.49
2024-03-21T05:34:35.489Z,32.37
2024-03-21T05:35:35.528Z,32.34
2024-03-21T05:36:35.604Z,32.55
2024-03-21T05:37:35.662Z,32.59
2024-03-21T05:38:35.727Z,32.89
2024-03-21T05:39:35.794Z,32.64
2024-03-21T05:40:35.832Z,32.52
2024-03-21T05:41:35.917Z,32.54
2024-03-21T05:42:35.947Z,32.43
2024-03-21T05:43:36.030Z,32.56
2024-03-21T05:44:36.144Z,32.57
2024-03-21T05:45:36.156Z,32.58
2024-03-21T05:46:36.251Z,32.59
2024-03-21T05:47:36.273Z,32.91
2024-03-21T05:48:36.318Z,32.71
2024-03-21T05:49:36.382Z,32.63
2024-03-21T05:50:36.440Z,32.91
2024-03-21T05:51:36.514Z,34.13
2024-03-21T05:52:36.548Z,34.63
2024-03-21T05:53:36.667Z,35.74
2024-03-21T05:54:36.702Z,36.28
2024-03-21T05:55:36.752Z,36.69
2024-03-21T05:56:36.829Z,37.18
2024-03-21T05:57:36.871Z,37.75
2024-03-21T05:58:36.909Z,38.14
2024-03-21T05:59:36.974Z,38.81
2024-03-21T06:00:36.975Z,38.88
2024-03-21T06:01:37.050Z,39.21
2024-03-21T06:02:37.189Z,39.36
2024-03-21T06:03:37.120Z,39.39
2024-03-21T06:04:37.148Z,39.62
2024-03-21T06:05:37.172Z,40.11
2024-03-21T06:06:37.201Z,40.33
2024-03-21T06:07:37.223Z,40.76
2024-03-21T06:08:37.272Z,41.63
2024-03-21T06:09:37.287Z,41.76
2024-03-21T06:10:37.320Z,41.46
2024-03-21T06:11:37.335Z,41.75
2024-03-21T06:12:37.376Z,42.12
2024-03-21T06:13:37.356Z,41.24
2024-03-21T06:14:37.396Z,42.34
2024-03-21T06:15:39.880Z,42.43
2024-03-21T06:16:37.553Z,42.26
2024-03-21T06:17:37.583Z,42.29
2024-03-21T06:18:37.597Z,42.89
2024-03-21T06:19:37.605Z,42.92
2024-03-21T06:20:37.651Z,43.74
2024-03-21T06:21:39.289Z,43.75
2024-03-21T06:22:37.628Z,43.91
2024-03-21T06:23:37.631Z,44.67
2024-03-21T06:24:37.648Z,44.81
2024-03-21T06:25:37.657Z,44.67
2024-03-21T06:26:37.661Z,44.78
2024-03-21T06:27:37.655Z,44.94
2024-03-21T06:28:37.665Z,44.76
2024-03-21T06:29:37.640Z,43.90
2024-03-21T06:30:37.646Z,44.39
2024-03-21T06:31:37.642Z,44.48
2024-03-21T06:32:37.661Z,44.28
2024-03-21T06:33:37.663Z,44.69
2024-03-21T06:34:37.670Z,44.71
2024-03-21T06:35:37.735Z,44.91
2024-03-21T06:36:37.682Z,40.23
2024-03-21T06:37:37.644Z,41.77
2024-03-21T06:38:37.668Z,43.37
2024-03-21T06:39:37.670Z,42.93
2024-03-21T06:40:37.653Z,42.43
2024-03-21T06:41:37.655Z,43.07
2024-03-21T06:42:37.660Z,43.33
2024-03-21T06:43:37.672Z,43.32
2024-03-21T06:44:37.692Z,42.16
2024-03-21T06:45:37.672Z,42.43
2024-03-21T06:46:37.691Z,43.24
2024-03-21T06:47:37.705Z,43.67
2024-03-21T06:48:37.658Z,43.85
2024-03-21T06:49:37.692Z,43.49
2024-03-21T06:50:38.270Z,41.34
2024-03-21T06:51:37.676Z,42.06
2024-03-21T06:52:37.677Z,43.07
2024-03-21T06:53:37.693Z,43.41
2024-03-21T06:54:37.708Z,42.22
2024-03-21T06:55:37.697Z,43.25
2024-03-21T06:56:37.655Z,43.40
2024-03-21T06:57:37.682Z,44.02
2024-03-21T06:58:37.683Z,43.70
2024-03-21T06:59:37.689Z,43.55
2024-03-21T07:00:37.677Z,43.74
2024-03-21T07:01:37.699Z,43.56
2024-03-21T07:02:37.848Z,43.71
2024-03-21T07:03:37.690Z,43.43
2024-03-21T07:04:37.698Z,43.85
2024-03-21T07:05:37.688Z,44.04
2024-03-21T07:06:37.696Z,44.11
2024-03-21T07:07:37.691Z,44.46
2024-03-21T07:08:37.669Z,44.86
2024-03-21T07:09:37.703Z,45.28
2024-03-21T07:10:37.723Z,45.50
2024-03-21T07:11:37.670Z,45.75
2024-03-21T07:12:37.680Z,45.94
2024-03-21T07:13:37.698Z,45.71
2024-03-21T07:14:37.708Z,45.87
2024-03-21T07:15:37.699Z,46.00
2024-03-21T07:16:39.119Z,46.02
2024-03-21T07:17:37.678Z,46.02
2024-03-21T07:18:37.698Z,46.07
2024-03-21T07:19:37.706Z,45.93
2024-03-21T07:20:37.717Z,45.90
2024-03-21T07:21:37.718Z,45.88
2024-03-21T07:22:37.695Z,46.05
2024-03-21T07:23:37.714Z,46.05
2024-03-21T07:24:37.743Z,45.82
2024-03-21T07:25:37.708Z,46.03
2024-03-21T07:26:37.708Z,46.07
2024-03-21T07:27:37.721Z,46.41
2024-03-21T07:28:37.729Z,46.47
2024-03-21T07:29:37.736Z,46.65
2024-03-21T07:30:37.752Z,46.65
2024-03-21T07:31:37.714Z,46.40
2024-03-21T07:32:37.716Z,46.04
2024-03-21T07:33:37.756Z,46.00
2024-03-21T07:34:37.736Z,46.27
2024-03-21T07:35:37.708Z,45.64
2024-03-21T07:36:37.754Z,45.16
2024-03-21T07:37:37.758Z,45.81
2024-03-21T07:38:37.730Z,46.36
2024-03-21T07:39:37.779Z,46.82
2024-03-21T07:40:37.754Z,47.22
2024-03-21T07:41:37.725Z,47.40
2024-03-21T07:42:37.721Z,47.40
2024-03-21T07:43:37.743Z,47.01
2024-03-21T07:44:37.780Z,46.41
2024-03-21T07:45:37.761Z,46.78
2024-03-21T07:46:37.742Z,45.68
2024-03-21T07:47:37.747Z,45.65
2024-03-21T07:48:37.774Z,46.33
2024-03-21T07:49:37.731Z,45.98
2024-03-21T07:50:37.732Z,45.94
2024-03-21T07:51:37.758Z,45.93
2024-03-21T07:52:37.760Z,45.82
2024-03-21T07:53:37.726Z,46.33
2024-03-21T07:54:37.864Z,46.31
2024-03-21T07:55:37.771Z,46.59
2024-03-21T07:56:37.765Z,47.52
2024-03-21T07:57:37.798Z,47.80
2024-03-21T07:58:37.743Z,47.92
2024-03-21T07:59:37.781Z,47.82
2024-03-21T08:00:37.790Z,47.60
2024-03-21T08:01:37.753Z,47.53
2024-03-21T08:02:37.767Z,46.94
2024-03-21T08:03:37.763Z,47.67
2024-03-21T08:04:37.765Z,47.32
2024-03-21T08:05:37.765Z,47.51
2024-03-21T08:06:37.769Z,47.43
2024-03-21T08:07:37.806Z,47.84
2024-03-21T08:08:37.766Z,48.08
2024-03-21T08:09:37.795Z,48.29
2024-03-21T08:10:37.832Z,47.97
2024-03-21T08:11:37.798Z,48.03
2024-03-21T08:12:37.818Z,47.74
2024-03-21T08:13:37.790Z,47.89
2024-03-21T08:14:37.806Z,47.99
2024-03-21T08:15:37.870Z,48.24
2024-03-21T08:16:37.872Z,48.45
2024-03-21T08:17:39.051Z,48.59
2024-03-21T08:18:37.819Z,48.52
2024-03-21T08:19:37.784Z,48.71
2024-03-21T08:20:37.834Z,49.02
2024-03-21T08:21:37.778Z,49.07
2024-03-21T08:22:37.777Z,49.21
2024-03-21T08:23:37.812Z,49.28
2024-03-21T08:24:37.773Z,49.30
2024-03-21T08:25:37.822Z,49.34
2024-03-21T08:26:37.854Z,49.40
2024-03-21T08:27:37.926Z,49.33
2024-03-21T08:28:37.936Z,48.93
2024-03-21T08:29:37.943Z,49.92
2024-03-21T08:30:38.001Z,49.69
2024-03-21T08:31:38.018Z,49.82
2024-03-21T08:32:38.083Z,50.21
2024-03-21T08:33:38.046Z,50.05
2024-03-21T08:34:38.106Z,50.08
2024-03-21T08:35:38.061Z,49.75
2024-03-21T08:36:38.055Z,50.11
2024-03-21T08:37:38.053Z,50.07
2024-03-21T08:38:38.071Z,47.84
2024-03-21T08:39:38.151Z,49.69
2024-03-21T08:40:38.101Z,49.47
2024-03-21T08:41:38.121Z,49.49
2024-03-21T08:42:38.177Z,49.19
2024-03-21T08:43:38.230Z,49.76
2024-03-21T08:44:38.124Z,49.91
2024-03-21T08:45:38.148Z,49.64
2024-03-21T08:46:38.182Z,49.95
2024-03-21T08:47:38.182Z,49.91
2024-03-21T08:48:38.289Z,50.08
2024-03-21T08:49:38.244Z,49.84
2024-03-21T08:50:38.278Z,50.09
2024-03-21T08:51:38.379Z,49.84
2024-03-21T08:52:38.339Z,49.79
2024-03-21T08:53:38.375Z,49.61
2024-03-21T08:54:38.405Z,49.55
2024-03-21T08:55:38.457Z,49.59
2024-03-21T08:56:38.480Z,49.68
2024-03-21T08:57:38.486Z,49.90
2024-03-21T08:58:38.525Z,49.76
2024-03-21T08:59:38.505Z,49.64
2024-03-21T09:00:38.514Z,50.11
2024-03-21T09:01:38.528Z,50.39
2024-03-21T09:02:38.548Z,50.60
2024-03-21T09:03:38.533Z,50.74
2024-03-21T09:04:38.570Z,50.69
2024-03-21T09:05:38.553Z,50.61
2024-03-21T09:06:38.571Z,50.41
2024-03-21T09:07:38.597Z,50.62
2024-03-21T09:08:38.626Z,50.47
2024-03-21T09:09:38.601Z,50.33
2024-03-21T09:10:38.594Z,50.61
2024-03-21T09:11:38.611Z,50.80
2024-03-21T09:12:38.598Z,50.87
2024-03-21T09:13:38.666Z,50.88
2024-03-21T09:14:38.658Z,51.41
2024-03-21T09:15:38.695Z,51.62
2024-03-21T09:16:38.726Z,51.27
2024-03-21T09:17:38.812Z,51.81
2024-03-21T09:18:39.333Z,51.70
2024-03-21T09:19:38.856Z,51.55
2024-03-21T09:20:38.905Z,50.95
2024-03-21T09:21:38.940Z,51.19
2024-03-21T09:22:39.003Z,51.29
2024-03-21T09:23:39.047Z,51.48
2024-03-21T09:24:39.120Z,51.58
2024-03-21T09:25:39.299Z,51.40
2024-03-21T09:26:39.192Z,51.38
2024-03-21T09:27:39.309Z,51.30
2024-03-21T09:28:39.357Z,51.32
2024-03-21T09:29:39.851Z,51.53
2024-03-21T09:30:39.488Z,51.46
2024-03-21T09:31:39.543Z,51.34
2024-03-21T09:32:39.631Z,50.96
2024-03-21T09:33:39.794Z,51.54
2024-03-21T09:34:39.746Z,50.81
2024-03-21T09:35:39.759Z,49.64
2024-03-21T09:36:39.833Z,51.99
2024-03-21T09:37:39.821Z,51.62
2024-03-21T09:38:39.880Z,51.94
2024-03-21T09:39:39.841Z,51.24
2024-03-21T09:40:39.880Z,51.61
2024-03-21T09:41:39.992Z,51.06
2024-03-21T09:42:40.035Z,51.23
2024-03-21T09:43:40.184Z,50.96
2024-03-21T09:44:40.147Z,50.29
2024-03-21T09:45:40.363Z,49.65
2024-03-21T09:46:40.331Z,49.82
2024-03-21T09:47:40.406Z,48.86
2024-03-21T09:48:41.078Z,47.45
2024-03-21T09:49:40.522Z,47.00
2024-03-21T09:50:40.546Z,48.30
2024-03-21T09:51:41.355Z,49.11
2024-03-21T09:52:40.684Z,49.08
2024-03-21T09:53:40.737Z,47.81
2024-03-21T09:54:40.811Z,47.22
2024-03-21T09:55:40.854Z,46.69
2024-03-21T09:56:40.942Z,47.88
2024-03-21T09:57:40.966Z,48.54
2024-03-21T09:58:41.036Z,48.36
2024-03-21T09:59:41.101Z,48.56
2024-03-21T10:00:41.160Z,48.87
2024-03-21T10:01:41.234Z,48.30
2024-03-21T10:02:41.327Z,49.26
2024-03-21T10:03:41.329Z,49.36
2024-03-21T10:04:41.389Z,49.75
2024-03-21T10:05:41.487Z,50.22
2024-03-21T10:06:41.512Z,50.68
2024-03-21T10:07:41.593Z,50.37
2024-03-21T10:08:41.651Z,49.91
2024-03-21T10:09:41.723Z,50.34
2024-03-21T10:10:41.800Z,50.43
2024-03-21T10:11:41.852Z,48.96
2024-03-21T10:12:41.905Z,49.31
2024-03-21T10:13:41.947Z,50.12
2024-03-21T10:14:42.060Z,50.76
2024-03-21T10:15:42.080Z,51.30
2024-03-21T10:16:42.152Z,51.60
2024-03-21T10:17:42.212Z,51.37
2024-03-21T10:18:42.586Z,51.17
2024-03-21T10:19:42.345Z,50.84
2024-03-21T10:20:42.447Z,50.72
2024-03-21T10:21:42.498Z,51.09
2024-03-21T10:22:42.570Z,51.16
2024-03-21T10:23:42.623Z,51.10
2024-03-21T10:24:42.710Z,50.76
2024-03-21T10:25:42.753Z,50.28
2024-03-21T10:26:42.797Z,50.34
2024-03-21T10:27:42.868Z,49.78
2024-03-21T10:28:42.891Z,50.67
2024-03-21T10:29:42.898Z,50.26
2024-03-21T10:30:42.915Z,51.16
2024-03-21T10:31:42.983Z,51.53
2024-03-21T10:32:43.000Z,51.94
2024-03-21T10:33:43.044Z,51.73
2024-03-21T10:34:43.148Z,51.46
2024-03-21T10:35:43.175Z,50.81
2024-03-21T10:36:43.259Z,51.09
2024-03-21T10:37:43.293Z,51.10
2024-03-21T10:38:43.381Z,51.27
2024-03-21T10:39:43.479Z,51.04
2024-03-21T10:40:43.534Z,51.34
2024-03-21T10:41:43.544Z,51.00
2024-03-21T10:42:43.796Z,51.05
2024-03-21T10:43:43.591Z,51.73
2024-03-21T10:44:43.710Z,51.17
2024-03-21T10:45:43.713Z,50.23
2024-03-21T10:46:43.763Z,49.92
2024-03-21T10:47:43.860Z,50.34
2024-03-21T10:48:43.876Z,50.53
2024-03-21T10:49:43.981Z,50.48
2024-03-21T10:50:44.038Z,50.46
2024-03-21T10:51:44.095Z,50.40
2024-03-21T10:52:44.146Z,50.44
2024-03-21T10:53:44.219Z,48.44
2024-03-21T10:54:44.286Z,49.41
2024-03-21T10:55:44.371Z,49.23
2024-03-21T10:56:44.438Z,48.73
2024-03-21T10:57:44.506Z,49.24
2024-03-21T10:58:45.682Z,49.21
2024-03-21T10:59:44.602Z,49.07
2024-03-21T11:00:44.671Z,49.03
2024-03-21T11:01:44.837Z,49.23
2024-03-21T11:02:44.937Z,49.57
2024-03-21T11:03:44.856Z,49.62
2024-03-21T11:04:45.012Z,48.83
2024-03-21T11:05:44.980Z,48.35
2024-03-21T11:06:45.063Z,48.18
2024-03-21T11:07:45.115Z,48.12
2024-03-21T11:08:45.161Z,48.50
2024-03-21T11:09:45.376Z,48.47
2024-03-21T11:10:45.337Z,48.43
2024-03-21T11:11:45.441Z,47.45
2024-03-21T11:12:45.460Z,47.34
2024-03-21T11:13:45.631Z,47.25
2024-03-21T11:14:49.454Z,46.74
2024-03-21T11:15:45.550Z,46.13
2024-03-21T11:16:45.538Z,47.27
2024-03-21T11:17:45.550Z,47.78
2024-03-21T11:18:45.585Z,48.29
2024-03-21T11:19:45.692Z,47.43
2024-03-21T11:20:45.564Z,45.81
2024-03-21T11:21:45.576Z,45.69
2024-03-21T11:22:45.550Z,47.24
2024-03-21T11:23:45.598Z,46.90
2024-03-21T11:24:45.584Z,44.31
2024-03-21T11:25:45.632Z,46.15
2024-03-21T11:26:45.568Z,47.06
2024-03-21T11:27:45.582Z,46.29
2024-03-21T11:28:45.574Z,45.68
2024-03-21T11:29:45.639Z,44.02
2024-03-21T11:30:45.547Z,47.75
2024-03-21T11:31:45.562Z,47.92
2024-03-21T11:32:45.564Z,47.78
2024-03-21T11:33:45.584Z,47.94
2024-03-21T11:34:45.619Z,46.06
2024-03-21T11:35:45.570Z,45.77
2024-03-21T11:36:47.431Z,46.06
2024-03-21T11:37:45.568Z,46.43
2024-03-21T11:38:45.584Z,46.68
2024-03-21T11:39:45.583Z,46.55
2024-03-21T11:40:45.636Z,46.28
2024-03-21T11:41:45.562Z,45.97
2024-03-21T11:42:45.587Z,45.77
2024-03-21T11:43:45.573Z,45.49
2024-03-21T11:44:45.635Z,45.43
2024-03-21T11:45:45.588Z,45.91
2024-03-21T11:46:45.616Z,46.26
2024-03-21T11:47:45.599Z,46.17
2024-03-21T11:48:45.584Z,46.26
2024-03-21T11:49:45.593Z,46.31
2024-03-21T11:50:45.578Z,45.97
2024-03-21T11:51:45.600Z,46.68
2024-03-21T11:52:45.593Z,46.70
2024-03-21T11:53:45.586Z,46.55
2024-03-21T11:54:46.078Z,46.81
2024-03-21T11:55:45.602Z,47.14
2024-03-21T11:56:45.588Z,46.27
2024-03-21T11:57:45.595Z,45.97
2024-03-21T11:58:45.615Z,46.70
2024-03-21T11:59:45.626Z,46.65
2024-03-21T12:00:47.344Z,46.96
2024-03-21T12:01:45.589Z,47.06
2024-03-21T12:02:45.624Z,47.00
2024-03-21T12:03:45.677Z,47.20
2024-03-21T12:04:45.624Z,47.55
2024-03-21T12:05:45.644Z,47.74
2024-03-21T12:06:46.150Z,47.53
2024-03-21T12:07:45.681Z,47.71
2024-03-21T12:08:45.634Z,47.90
2024-03-21T12:09:45.776Z,48.14
2024-03-21T12:10:45.837Z,48.02
2024-03-21T12:11:45.669Z,47.36
2024-03-21T12:12:46.168Z,47.83
2024-03-21T12:13:45.667Z,47.47
2024-03-21T12:14:45.647Z,47.25
2024-03-21T12:15:45.672Z,47.02
2024-03-21T12:16:45.705Z,47.16
2024-03-21T12:17:45.641Z,46.32
2024-03-21T12:18:50.741Z,46.28
2024-03-21T12:19:46.659Z,47.20
2024-03-21T12:20:45.733Z,47.23
2024-03-21T12:21:45.649Z,47.48
2024-03-21T12:22:45.768Z,47.48
2024-03-21T12:23:45.688Z,47.30
2024-03-21T12:24:46.325Z,46.30
2024-03-21T12:25:45.708Z,46.52
2024-03-21T12:26:45.652Z,46.58
2024-03-21T12:27:45.668Z,46.54
2024-03-21T12:28:45.766Z,45.58
2024-03-21T12:29:45.966Z,46.09
2024-03-21T12:30:45.983Z,45.93
2024-03-21T12:31:45.945Z,45.96
2024-03-21T12:32:45.992Z,45.24
2024-03-21T12:33:46.084Z,45.96
2024-03-21T12:34:46.157Z,45.49
2024-03-21T12:35:46.221Z,45.89
2024-03-21T12:36:46.276Z,45.89
2024-03-21T12:37:46.370Z,45.96
2024-03-21T12:38:46.419Z,46.24
2024-03-21T12:39:46.995Z,46.19
2024-03-21T12:40:46.527Z,45.94
2024-03-21T12:41:46.597Z,45.89
2024-03-21T12:42:46.679Z,45.87
2024-03-21T12:43:46.762Z,46.78
2024-03-21T12:44:46.850Z,46.82
2024-03-21T12:45:46.911Z,46.79
2024-03-21T12:46:46.971Z,47.24
2024-03-21T12:47:47.084Z,46.98
2024-03-21T12:48:47.261Z,47.21
2024-03-21T12:49:47.184Z,47.46
2024-03-21T12:50:47.292Z,47.15
2024-03-21T12:51:47.290Z,46.96
2024-03-21T12:52:47.423Z,47.15